createdAt,value
2022-10-11T00:00:14.017Z,68.70
2022-10-11T00:02:40.846Z,68.70
2022-10-11T00:05:08.807Z,68.80
2022-10-11T00:07:38.024Z,68.80
2022-10-11T00:10:08.256Z,68.90
2022-10-11T00:12:36.355Z,68.70
2022-10-11T00:15:06.029Z,68.80
2022-10-11T00:17:33.226Z,68.90
2022-10-11T00:20:00.310Z,68.90
2022-10-11T00:22:27.263Z,69.00
2022-10-11T00:24:54.412Z,69.10
2022-10-11T00:27:21.249Z,69.10
2022-10-11T00:29:48.312Z,69.20
2022-10-11T00:32:15.211Z,69.20
2022-10-11T00:34:42.676Z,69.20
2022-10-11T00:37:09.617Z,69.40
2022-10-11T00:39:36.520Z,69.50
2022-10-11T00:42:04.161Z,69.50
2022-10-11T00:44:33.325Z,69.70
2022-10-11T00:47:09.529Z,69.90
2022-10-11T00:49:54.390Z,70.00
2022-10-11T00:52:32.502Z,70.90
2022-10-11T00:55:12.289Z,70.20
2022-10-11T00:57:44.037Z,70.20
2022-10-11T01:00:13.955Z,70.30
2022-10-11T01:02:41.741Z,70.30
2022-10-11T01:05:29.303Z,70.40
2022-10-11T01:08:01.072Z,70.60
2022-10-11T01:10:28.990Z,70.60
2022-10-11T01:13:48.194Z,70.60
2022-10-11T01:17:00.263Z,71.80
2022-10-11T01:19:45.622Z,70.90
2022-10-11T01:23:05.862Z,71.00
2022-10-11T01:26:13.098Z,71.30
2022-10-11T01:29:15.337Z,71.40
2022-10-11T01:32:12.697Z,71.60
2022-10-11T01:35:03.466Z,71.80
2022-10-11T01:37:43.823Z,71.80
2022-10-11T01:40:23.232Z,72.10
2022-10-11T01:42:51.677Z,72.30
2022-10-11T01:45:20.759Z,72.30
2022-10-11T01:47:48.035Z,72.60
2022-10-11T01:50:40.061Z,72.70
2022-10-11T01:53:43.894Z,73.40
2022-10-11T01:56:36.812Z,73.40
2022-10-11T02:00:16.053Z,73.30
2022-10-11T02:03:44.498Z,74.30
2022-10-11T02:06:40.769Z,74.10
2022-10-11T02:09:53.714Z,73.80
2022-10-11T02:12:46.433Z,74.50
2022-10-11T02:15:16.693Z,74.60
2022-10-11T02:17:55.596Z,74.30
2022-10-11T02:20:26.384Z,75.00
2022-10-11T02:23:01.577Z,75.00
2022-10-11T02:25:31.008Z,75.30
2022-10-11T02:28:01.564Z,75.40
2022-10-11T02:30:30.692Z,75.50
2022-10-11T02:32:59.168Z,75.50
2022-10-11T02:35:29.839Z,75.70
2022-10-11T02:38:12.910Z,76.00
2022-10-11T02:40:45.146Z,76.20
2022-10-11T02:43:33.466Z,75.80
2022-10-11T02:46:05.954Z,76.00
2022-10-11T02:48:35.499Z,75.80
2022-10-11T02:51:04.070Z,75.90
2022-10-11T02:53:31.322Z,76.00
2022-10-11T02:55:58.266Z,76.00
2022-10-11T02:58:25.615Z,76.10
2022-10-11T03:00:52.683Z,76.10
2022-10-11T03:03:19.827Z,76.30
2022-10-11T03:05:47.129Z,76.30
2022-10-11T03:08:17.154Z,76.30
2022-10-11T03:10:45.146Z,76.40
2022-10-11T03:13:16.001Z,76.40
2022-10-11T03:16:02.333Z,76.50
2022-10-11T03:18:31.468Z,76.70
2022-10-11T03:20:58.890Z,76.60
2022-10-11T03:23:25.768Z,76.70
2022-10-11T03:25:52.749Z,76.80
2022-10-11T03:28:20.232Z,76.90
2022-10-11T03:30:51.670Z,76.90
2022-10-11T03:33:19.271Z,77.20
2022-10-11T03:35:47.410Z,77.20
2022-10-11T03:38:21.939Z,77.40
2022-10-11T03:40:49.248Z,77.50
2022-10-11T03:43:16.607Z,77.50
2022-10-11T03:45:43.753Z,77.60
2022-10-11T03:48:11.566Z,77.60
2022-10-11T03:50:38.966Z,77.70
2022-10-11T03:53:07.550Z,77.70
2022-10-11T03:55:34.557Z,77.80
2022-10-11T03:58:01.517Z,78.00
2022-10-11T04:00:28.644Z,77.90
2022-10-11T04:02:55.695Z,77.80
2022-10-11T04:05:22.654Z,78.20
2022-10-11T04:07:49.757Z,78.20
2022-10-11T04:10:17.264Z,78.40
2022-10-11T04:12:44.226Z,78.60
2022-10-11T04:15:13.798Z,78.70
2022-10-11T04:17:41.649Z,78.60
2022-10-11T04:20:09.597Z,78.70
2022-10-11T04:22:36.753Z,78.70
2022-10-11T04:25:04.285Z,78.70
2022-10-11T04:27:31.293Z,78.60
2022-10-11T04:29:58.241Z,78.70
2022-10-11T04:32:25.384Z,78.70
2022-10-11T04:34:53.282Z,78.80
2022-10-11T04:37:20.453Z,78.90
2022-10-11T04:39:47.583Z,78.80
2022-10-11T04:42:14.606Z,78.80
2022-10-11T04:44:41.454Z,78.90
2022-10-11T04:47:08.695Z,78.90
2022-10-11T04:49:35.618Z,79.00
2022-10-11T04:52:02.970Z,79.10
2022-10-11T04:54:30.062Z,79.20
2022-10-11T04:56:56.885Z,79.20
2022-10-11T04:59:23.889Z,79.40
2022-10-11T05:01:51.047Z,79.40
2022-10-11T05:04:17.998Z,79.50
2022-10-11T05:06:45.007Z,79.60
2022-10-11T05:09:11.921Z,79.70
2022-10-11T05:11:39.061Z,79.90
2022-10-11T05:14:05.957Z,79.90
2022-10-11T05:16:33.065Z,80.00
2022-10-11T05:19:00.104Z,80.20
2022-10-11T05:21:29.107Z,80.30
2022-10-11T05:23:57.290Z,80.40
2022-10-11T05:26:27.605Z,80.50
2022-10-11T05:28:55.346Z,80.50
2022-10-11T05:31:22.724Z,80.60
2022-10-11T05:33:49.745Z,80.60
2022-10-11T05:36:17.220Z,80.80
2022-10-11T05:38:44.168Z,80.80
2022-10-11T05:41:14.835Z,81.00
2022-10-11T05:44:08.180Z,81.10
2022-10-11T05:46:35.353Z,81.70
2022-10-11T05:49:02.364Z,81.20
2022-10-11T05:51:29.439Z,81.30
2022-10-11T05:54:22.115Z,81.40
2022-10-11T05:56:49.026Z,81.50
2022-10-11T05:59:15.863Z,81.60
2022-10-11T06:01:43.063Z,81.70
2022-10-11T06:04:11.735Z,81.90
2022-10-11T06:06:38.590Z,82.00
2022-10-11T06:09:05.554Z,82.10
2022-10-11T06:11:32.602Z,82.20
2022-10-11T06:13:59.601Z,82.30
2022-10-11T06:16:27.532Z,82.50
2022-10-11T06:18:56.843Z,82.60
2022-10-11T06:21:24.482Z,82.90
2022-10-11T06:23:56.866Z,83.40
2022-10-11T06:26:27.675Z,83.70
2022-10-11T06:28:54.907Z,83.90
2022-10-11T06:31:23.231Z,84.10
2022-10-11T06:33:50.069Z,84.00
2022-10-11T06:36:17.655Z,83.70
2022-10-11T06:38:45.403Z,83.50
2022-10-11T06:41:26.642Z,83.30
2022-10-11T06:43:53.566Z,83.20
2022-10-11T06:46:23.449Z,83.00
2022-10-11T06:48:51.371Z,82.80
2022-10-11T06:51:21.244Z,82.70
2022-10-11T06:53:55.286Z,82.30
2022-10-11T06:56:22.248Z,81.70
2022-10-11T06:58:51.158Z,81.60
2022-10-11T07:01:21.180Z,81.10
2022-10-11T07:03:48.718Z,80.50
2022-10-11T07:06:25.266Z,79.70
2022-10-11T07:08:52.757Z,78.80
2022-10-11T07:11:23.882Z,78.30
2022-10-11T07:13:53.753Z,77.30
2022-10-11T07:16:21.806Z,76.70
2022-10-11T07:19:00.460Z,75.70
2022-10-11T07:21:30.013Z,74.60
2022-10-11T07:23:56.909Z,73.80
2022-10-11T07:26:23.874Z,72.70
2022-10-11T07:28:50.824Z,71.50
2022-10-11T07:31:23.483Z,70.20
2022-10-11T07:33:50.918Z,69.00
2022-10-11T07:36:17.865Z,68.20
2022-10-11T07:38:46.851Z,67.40
2022-10-11T07:41:14.481Z,66.50
2022-10-11T07:43:43.330Z,65.60
2022-10-11T07:46:11.208Z,64.30
2022-10-11T07:48:38.757Z,62.70
2022-10-11T07:51:16.267Z,61.60
2022-10-11T07:53:46.650Z,59.80
2022-10-11T07:56:17.713Z,59.50
2022-10-11T07:59:11.161Z,58.00
2022-10-11T08:01:38.416Z,57.40
2022-10-11T08:04:05.498Z,56.60
2022-10-11T08:06:32.748Z,55.20
2022-10-11T08:09:01.048Z,54.70
2022-10-11T08:11:35.059Z,53.70
2022-10-11T08:14:08.422Z,52.90
2022-10-11T08:16:36.730Z,52.00
2022-10-11T08:19:04.372Z,51.10
2022-10-11T08:21:32.347Z,50.90
2022-10-11T08:23:59.919Z,50.10
2022-10-11T08:26:26.978Z,49.30
2022-10-11T08:28:53.926Z,48.80
2022-10-11T08:31:21.342Z,46.60
2022-10-11T08:33:48.247Z,46.80
2022-10-11T08:36:15.558Z,45.70
2022-10-11T08:38:42.643Z,44.80
2022-10-11T08:41:38.854Z,44.10
2022-10-11T08:45:10.468Z,42.80
2022-10-11T08:47:37.896Z,43.00
2022-10-11T08:50:08.693Z,41.90
2022-10-11T08:52:53.726Z,41.10
2022-10-11T08:55:52.981Z,40.70
2022-10-11T08:58:25.913Z,39.60
2022-10-11T09:00:56.601Z,40.30
2022-10-11T09:03:43.054Z,40.00
2022-10-11T09:06:37.475Z,37.70
2022-10-11T09:09:22.747Z,37.70
2022-10-11T09:12:11.810Z,37.60
2022-10-11T09:15:55.173Z,36.60
2022-10-11T09:18:45.874Z,36.70
2022-10-11T09:21:42.190Z,36.80
2022-10-11T09:24:27.318Z,35.70
2022-10-11T09:27:01.778Z,35.50
2022-10-11T09:30:04.035Z,33.90
2022-10-11T09:32:37.779Z,32.10
2022-10-11T09:35:22.977Z,32.40
2022-10-11T09:38:14.658Z,31.00
2022-10-11T09:41:22.237Z,31.30
2022-10-11T09:43:50.799Z,31.00
2022-10-11T09:46:37.555Z,33.60
2022-10-11T09:49:12.455Z,30.10
2022-10-11T09:51:45.153Z,29.60
2022-10-11T09:54:12.018Z,30.10
2022-10-11T09:56:45.368Z,30.20
2022-10-11T09:59:27.565Z,30.00
2022-10-11T10:02:20.673Z,30.00
2022-10-11T10:05:10.815Z,29.20
2022-10-11T10:07:41.028Z,29.40
2022-10-11T10:10:39.365Z,29.40
2022-10-11T10:13:41.967Z,28.50
2022-10-11T10:16:29.614Z,26.60
2022-10-11T10:19:07.723Z,25.40
2022-10-11T10:21:38.814Z,25.80
2022-10-11T10:24:18.307Z,25.80
2022-10-11T10:27:14.482Z,25.40
2022-10-11T10:29:42.499Z,25.00
2022-10-11T10:32:37.935Z,24.90
2022-10-11T10:35:39.313Z,23.90
2022-10-11T10:38:24.108Z,23.60
2022-10-11T10:40:58.393Z,23.90
2022-10-11T10:43:32.194Z,24.20
2022-10-11T10:46:26.419Z,23.70
2022-10-11T10:50:13.989Z,22.90
2022-10-11T10:53:04.800Z,22.70
2022-10-11T10:55:38.191Z,22.50
2022-10-11T10:58:22.027Z,22.80
2022-10-11T11:01:03.592Z,22.10
2022-10-11T11:04:26.180Z,22.10
2022-10-11T11:07:20.084Z,21.90
2022-10-11T11:10:16.793Z,22.30
2022-10-11T11:13:10.087Z,22.60
2022-10-11T11:16:05.236Z,23.00
2022-10-11T11:18:51.257Z,23.20
2022-10-11T11:21:41.868Z,22.50
2022-10-11T11:24:20.782Z,21.90
2022-10-11T11:27:28.213Z,21.80
2022-10-11T11:30:34.119Z,21.60
2022-10-11T11:33:18.613Z,21.00
2022-10-11T11:35:58.833Z,20.80
2022-10-11T11:38:52.424Z,21.10
2022-10-11T11:41:45.162Z,21.50
2022-10-11T11:44:31.599Z,22.10
2022-10-11T11:47:24.862Z,22.70
2022-10-11T11:50:04.786Z,23.10
2022-10-11T11:52:44.116Z,23.30
2022-10-11T11:55:23.042Z,23.50
2022-10-11T11:58:37.301Z,23.80
2022-10-11T12:01:50.998Z,23.30
2022-10-11T12:04:45.756Z,23.00
2022-10-11T12:07:21.765Z,23.30
2022-10-11T12:10:37.226Z,23.30
2022-10-11T12:13:31.996Z,23.50
2022-10-11T12:16:13.749Z,23.80
2022-10-11T12:18:57.821Z,24.00
2022-10-11T12:21:39.228Z,24.40
2022-10-11T12:24:19.270Z,24.80
2022-10-11T12:26:48.506Z,25.20
2022-10-11T12:29:18.677Z,25.60
2022-10-11T12:32:11.216Z,26.10
2022-10-11T12:34:42.593Z,26.50
2022-10-11T12:37:19.115Z,26.90
2022-10-11T12:39:55.695Z,27.40
2022-10-11T12:42:25.668Z,27.80
2022-10-11T12:45:11.967Z,28.00
2022-10-11T12:48:33.131Z,28.20
2022-10-11T12:51:30.836Z,28.70
2022-10-11T12:54:29.962Z,29.20
2022-10-11T12:57:12.543Z,29.60
2022-10-11T12:59:46.226Z,29.70
2022-10-11T13:02:42.618Z,29.60
2022-10-11T13:05:45.481Z,29.60
2022-10-11T13:08:32.121Z,29.30
2022-10-11T13:11:05.142Z,29.20
2022-10-11T13:13:39.903Z,29.10
2022-10-11T13:16:16.473Z,28.90
2022-10-11T13:18:47.605Z,28.70
2022-10-11T13:21:36.485Z,28.50
2022-10-11T13:24:19.248Z,28.40
2022-10-11T13:26:49.837Z,28.20
2022-10-11T13:29:38.775Z,28.10
2022-10-11T13:32:27.603Z,28.00
2022-10-11T13:35:07.500Z,27.80
2022-10-11T13:37:45.352Z,27.60
2022-10-11T13:40:16.460Z,27.60
2022-10-11T13:42:44.125Z,27.40
2022-10-11T13:45:19.204Z,26.20
2022-10-11T13:47:48.109Z,25.60
2022-10-11T13:50:32.181Z,25.40
2022-10-11T13:53:07.786Z,25.40
2022-10-11T13:55:54.760Z,25.60
2022-10-11T13:58:27.772Z,25.80
2022-10-11T14:01:04.191Z,26.00
2022-10-11T14:03:59.572Z,26.30
2022-10-11T14:06:56.679Z,26.40
2022-10-11T14:09:32.762Z,26.70
2022-10-11T14:12:35.076Z,26.60
2022-10-11T14:15:25.671Z,26.70
2022-10-11T14:17:53.083Z,27.00
2022-10-11T14:20:26.422Z,27.20
2022-10-11T14:22:56.568Z,27.30
2022-10-11T14:25:23.407Z,27.50
2022-10-11T14:27:50.592Z,27.70
2022-10-11T14:30:26.106Z,27.80
2022-10-11T14:32:56.966Z,28.10
2022-10-11T14:35:31.956Z,28.20
2022-10-11T14:37:59.204Z,28.20
2022-10-11T14:40:30.086Z,28.50
2022-10-11T14:43:22.312Z,28.50
2022-10-11T14:45:49.564Z,28.70
2022-10-11T14:48:26.712Z,28.90
2022-10-11T14:51:04.796Z,29.70
2022-10-11T14:53:31.629Z,29.30
2022-10-11T14:55:58.608Z,29.30
2022-10-11T14:58:25.567Z,29.40
2022-10-11T15:01:17.852Z,29.30
2022-10-11T15:03:44.946Z,29.40
2022-10-11T15:06:24.286Z,29.40
2022-10-11T15:08:51.352Z,29.60
2022-10-11T15:11:20.797Z,29.80
2022-10-11T15:13:48.580Z,30.00
2022-10-11T15:16:19.839Z,30.30
2022-10-11T15:18:52.144Z,30.70
2022-10-11T15:21:23.454Z,31.00
2022-10-11T15:23:53.785Z,31.20
2022-10-11T15:26:28.800Z,31.20
2022-10-11T15:28:57.235Z,31.50
2022-10-11T15:31:24.447Z,31.80
2022-10-11T15:33:55.388Z,32.10
2022-10-11T15:36:22.839Z,32.40
2022-10-11T15:38:50.092Z,32.60
2022-10-11T15:41:19.056Z,32.70
2022-10-11T15:43:48.672Z,32.80
2022-10-11T15:46:20.284Z,33.20
2022-10-11T15:48:48.599Z,33.40
2022-10-11T15:51:16.214Z,33.50
2022-10-11T15:53:43.513Z,33.60
2022-10-11T15:56:16.740Z,33.90
2022-10-11T15:58:44.129Z,34.40
2022-10-11T16:01:19.289Z,34.70
2022-10-11T16:03:48.947Z,35.20
2022-10-11T16:06:17.676Z,35.30
2022-10-11T16:08:45.040Z,35.50
2022-10-11T16:11:13.237Z,36.00
2022-10-11T16:13:40.581Z,36.20
2022-10-11T16:16:09.712Z,36.60
2022-10-11T16:18:37.135Z,36.90
2022-10-11T16:21:11.062Z,37.10
2022-10-11T16:23:38.722Z,37.60
2022-10-11T16:26:11.016Z,37.70
2022-10-11T16:28:38.592Z,38.10
2022-10-11T16:31:17.933Z,38.40
2022-10-11T16:33:46.210Z,39.20
2022-10-11T16:36:31.733Z,39.20
2022-10-11T16:39:00.810Z,39.80
2022-10-11T16:41:27.837Z,40.00
2022-10-11T16:44:27.889Z,40.40
2022-10-11T16:46:55.812Z,41.10
2022-10-11T16:49:26.918Z,41.50
2022-10-11T16:51:59.029Z,42.00
2022-10-11T16:54:30.613Z,42.40
2022-10-11T16:56:58.927Z,42.80
2022-10-11T16:59:26.121Z,43.20
2022-10-11T17:01:53.221Z,43.60
2022-10-11T17:04:20.117Z,44.10
2022-10-11T17:06:47.366Z,44.30
2022-10-11T17:09:14.482Z,44.60
2022-10-11T17:11:42.090Z,44.90
2022-10-11T17:14:11.055Z,45.30
2022-10-11T17:16:37.984Z,45.70
2022-10-11T17:19:05.426Z,46.10
2022-10-11T17:21:32.414Z,46.50
2022-10-11T17:23:59.445Z,46.90
2022-10-11T17:26:27.272Z,47.10
2022-10-11T17:28:59.583Z,47.60
2022-10-11T17:31:28.210Z,48.00
2022-10-11T17:34:20.642Z,48.20
2022-10-11T17:36:47.959Z,48.50
2022-10-11T17:39:19.032Z,49.00
2022-10-11T17:42:11.261Z,49.40
2022-10-11T17:44:38.306Z,49.60
2022-10-11T17:47:05.493Z,50.00
2022-10-11T17:49:32.420Z,50.40
2022-10-11T17:51:59.262Z,50.80
2022-10-11T17:54:26.697Z,51.20
2022-10-11T17:56:54.425Z,51.50
2022-10-11T17:59:21.700Z,51.80
2022-10-11T18:01:50.308Z,52.20
2022-10-11T18:04:21.301Z,52.70
2022-10-11T18:06:49.852Z,53.10
2022-10-11T18:09:18.572Z,53.30
2022-10-11T18:11:47.218Z,53.80
2022-10-11T18:14:14.973Z,54.20
2022-10-11T18:16:42.698Z,54.60
2022-10-11T18:19:13.320Z,54.90
2022-10-11T18:21:40.759Z,55.40
2022-10-11T18:24:15.312Z,55.60
2022-10-11T18:26:44.428Z,56.10
2022-10-11T18:29:12.637Z,56.40
2022-10-11T18:31:40.934Z,56.60
2022-10-11T18:34:10.845Z,57.00
2022-10-11T18:36:38.665Z,57.40
2022-10-11T18:39:08.638Z,57.60
2022-10-11T18:41:38.678Z,57.90
2022-10-11T18:44:08.454Z,58.20
2022-10-11T18:46:36.455Z,58.50
2022-10-11T18:49:03.522Z,58.80
2022-10-11T18:51:39.137Z,59.10
2022-10-11T18:54:08.329Z,59.70
2022-10-11T18:56:37.236Z,59.60
2022-10-11T18:59:05.554Z,59.80
2022-10-11T19:01:39.973Z,60.10
2022-10-11T19:04:10.878Z,60.50
2022-10-11T19:06:45.363Z,60.80
2022-10-11T19:09:21.723Z,61.20
2022-10-11T19:11:54.407Z,61.40
2022-10-11T19:14:28.547Z,61.60
2022-10-11T19:16:56.742Z,61.70
2022-10-11T19:19:29.351Z,61.90
2022-10-11T19:21:56.636Z,62.30
2022-10-11T19:24:26.697Z,62.60
2022-10-11T19:26:58.400Z,62.90
2022-10-11T19:29:28.781Z,63.20
2022-10-11T19:31:59.742Z,63.40
2022-10-11T19:37:19.217Z,64.00
2022-10-11T19:39:46.038Z,64.00
2022-10-11T19:42:13.076Z,64.20
2022-10-11T19:44:39.964Z,64.50
2022-10-11T19:47:07.159Z,64.80
2022-10-11T19:49:34.545Z,64.90
2022-10-11T19:52:02.491Z,65.20
2022-10-11T19:54:29.430Z,65.40
2022-10-11T19:56:56.618Z,65.50
2022-10-11T19:59:23.549Z,65.80
2022-10-11T20:01:53.103Z,66.00
2022-10-11T20:07:08.672Z,66.40
2022-10-11T20:09:35.623Z,66.70
2022-10-11T20:12:02.538Z,67.00
2022-10-11T20:14:30.098Z,67.20
2022-10-11T20:16:57.144Z,67.30
2022-10-11T20:19:30.389Z,67.40
2022-10-11T20:22:01.874Z,67.50
2022-10-11T20:24:32.541Z,67.50
2022-10-11T20:27:02.918Z,68.30
2022-10-11T20:29:29.813Z,67.60
2022-10-11T20:31:56.610Z,67.70
2022-10-11T20:34:23.677Z,67.80
2022-10-11T20:36:50.673Z,68.00
2022-10-11T20:39:17.930Z,68.10
2022-10-11T20:41:48.196Z,68.20
2022-10-11T20:44:16.046Z,68.40
2022-10-11T20:46:43.246Z,68.60
2022-10-11T20:49:11.697Z,68.70
2022-10-11T20:51:41.600Z,68.90
2022-10-11T20:54:13.383Z,68.80
2022-10-11T20:56:40.401Z,68.90
2022-10-11T20:59:07.688Z,69.10
2022-10-11T21:01:38.612Z,69.20
2022-10-11T21:04:07.691Z,69.40
2022-10-11T21:06:34.678Z,69.40
2022-10-11T21:09:02.034Z,69.50
2022-10-11T21:11:31.769Z,69.50
2022-10-11T21:14:02.281Z,69.70
2022-10-11T21:16:29.862Z,69.70
2022-10-11T21:18:58.382Z,69.60
2022-10-11T21:21:26.730Z,69.70
2022-10-11T21:23:55.977Z,69.80
2022-10-11T21:26:22.968Z,70.00
2022-10-11T21:28:50.105Z,70.00
2022-10-11T21:31:19.849Z,70.20
2022-10-11T21:33:47.418Z,70.30
2022-10-11T21:36:17.771Z,70.30
2022-10-11T21:38:46.751Z,70.50
2022-10-11T21:41:18.608Z,70.50
2022-10-11T21:44:10.896Z,70.60
2022-10-11T21:47:05.491Z,70.60
2022-10-11T21:49:25.969Z,70.50
2022-10-11T21:51:53.602Z,70.60
2022-10-11T21:54:20.748Z,70.70
2022-10-11T21:56:47.649Z,70.80
2022-10-11T21:59:14.579Z,70.80
2022-10-11T22:01:43.356Z,70.90
2022-10-11T22:04:10.945Z,71.00
2022-10-11T22:06:38.648Z,71.10
2022-10-11T22:09:06.806Z,71.10
2022-10-11T22:11:33.688Z,71.60
2022-10-11T22:14:00.917Z,71.20
2022-10-11T22:16:28.036Z,71.40
2022-10-11T22:18:54.842Z,71.40
2022-10-11T22:21:23.634Z,71.50
2022-10-11T22:23:53.501Z,71.60
2022-10-11T22:26:26.449Z,71.70
2022-10-11T22:28:53.875Z,71.70
2022-10-11T22:31:22.037Z,71.70
2022-10-11T22:34:13.809Z,71.80
2022-10-11T22:36:41.099Z,71.80
2022-10-11T22:39:09.717Z,71.80
2022-10-11T22:41:37.722Z,71.80
2022-10-11T22:44:05.133Z,71.80
2022-10-11T22:46:32.364Z,71.90
2022-10-11T22:48:59.380Z,71.90
2022-10-11T22:51:26.232Z,71.90
2022-10-11T22:53:53.698Z,72.00
2022-10-11T22:56:20.720Z,72.10
2022-10-11T22:58:47.577Z,72.10
2022-10-11T23:01:16.390Z,72.10
2022-10-11T23:03:43.491Z,72.20
2022-10-11T23:06:10.526Z,72.20
2022-10-11T23:08:37.637Z,72.30
2022-10-11T23:11:06.832Z,72.30
2022-10-11T23:13:34.565Z,72.50
2022-10-11T23:16:10.951Z,72.50
2022-10-11T23:18:38.292Z,72.70
2022-10-11T23:21:06.998Z,72.70
2022-10-11T23:23:34.171Z,72.70
2022-10-11T23:26:12.745Z,72.80
2022-10-11T23:28:40.212Z,73.10
2022-10-11T23:31:16.968Z,72.90
2022-10-11T23:33:45.361Z,73.20
2022-10-11T23:36:24.172Z,73.10
2022-10-11T23:38:53.387Z,73.30
2022-10-11T23:41:21.846Z,73.40
2022-10-11T23:43:49.129Z,73.50
2022-10-11T23:46:16.049Z,73.50
2022-10-11T23:48:43.001Z,73.80
2022-10-11T23:51:09.935Z,74.00
2022-10-11T23:53:38.121Z,74.10
2022-10-11T23:56:06.002Z,74.10
2022-10-11T23:58:33.254Z,74.10
